Time;durP1;ratioP1;P1;durP2;ratioP2;P2;SDS_P1;SDS_P2;PMS_P1;PMS_P2;Temp;Humidity;BMP_temperature;BMP_pressure;BME280_temperature;BME280_humidity;BME280_pressure;Samples;Min_cycle;Max_cycle;Signal;HPM_P1;HPM_P2
2021/05/23 00:00:39;;;;;;;14.73;8.10;;;12.70;99.90;;;;;;4963352;28;20033;-77
2021/05/23 00:03:08;;;;;;;10.63;7.55;;;12.60;99.90;;;;;;4967495;28;20038;-77
2021/05/23 00:05:39;;;;;;;10.70;7.00;;;12.60;99.90;;;;;;4961588;28;20031;-76
2021/05/23 00:08:17;;;;;;;12.15;8.40;;;12.60;99.90;;;;;;4959774;28;20028;-77
2021/05/23 00:10:49;;;;;;;8.48;7.03;;;12.50;99.90;;;;;;4956411;28;20483;-77
2021/05/23 00:13:16;;;;;;;;;;;12.40;99.90;;;;;;4960087;28;20045;-77
2021/05/23 00:16:01;;;;;;;13.05;8.68;;;12.50;99.90;;;;;;4960370;28;19914;-77
2021/05/23 00:18:29;;;;;;;13.90;8.90;;;12.60;99.90;;;;;;4961261;28;20031;-76
2021/05/23 00:20:55;;;;;;;14.57;9.95;;;12.60;99.90;;;;;;4953265;28;20114;-73
2021/05/23 00:23:21;;;;;;;14.35;8.40;;;12.60;99.90;;;;;;4953550;28;20043;-77
2021/05/23 00:25:47;;;;;;;15.80;9.55;;;12.60;99.90;;;;;;4959843;28;20073;-77
2021/05/23 00:28:14;;;;;;;14.52;9.68;;;12.60;99.90;;;;;;4959702;28;20102;-77
2021/05/23 00:30:40;;;;;;;15.50;11.18;;;12.60;99.90;;;;;;4967904;28;20604;-77
2021/05/23 00:33:08;;;;;;;18.42;11.48;;;12.50;99.90;;;;;;4960009;28;20058;-77
2021/05/23 00:35:34;;;;;;;16.13;9.57;;;12.60;99.90;;;;;;4961423;28;20035;-76
2021/05/23 00:38:00;;;;;;;12.10;9.70;;;12.50;99.90;;;;;;4958132;28;20034;-76
2021/05/23 00:40:26;;;;;;;12.50;9.63;;;12.60;99.90;;;;;;4962730;28;20021;-77
2021/05/23 00:42:52;;;;;;;23.67;11.50;;;12.60;99.90;;;;;;4961076;28;20395;-77
2021/05/23 00:45:19;;;;;;;13.02;10.32;;;12.50;99.90;;;;;;4959124;28;20046;-77
2021/05/23 00:47:46;;;;;;;21.10;12.35;;;12.60;99.90;;;;;;4959681;28;20030;-77
2021/05/23 00:50:17;;;;;;;16.35;10.45;;;12.60;99.90;;;;;;4956976;28;20039;-76
2021/05/23 00:52:43;;;;;;;16.50;10.57;;;12.50;99.90;;;;;;4959191;28;20034;-77
2021/05/23 00:55:09;;;;;;;13.55;11.02;;;12.50;99.90;;;;;;4961232;28;20110;-76
2021/05/23 00:57:35;;;;;;;19.92;12.25;;;12.50;99.90;;;;;;4957711;28;20107;-76
2021/05/23 01:00:00;;;;;;;13.02;9.85;;;12.60;99.90;;;;;;4960758;28;20106;-76
2021/05/23 01:02:47;;;;;;;20.35;11.52;;;12.50;99.90;;;;;;4955954;28;20078;-76
2021/05/23 01:05:22;;;;;;;17.55;12.45;;;12.50;99.90;;;;;;4958748;28;20082;-77
2021/05/23 01:07:48;;;;;;;15.60;11.73;;;12.50;99.90;;;;;;4960588;28;20544;-77
2021/05/23 01:10:22;;;;;;;17.65;12.43;;;12.60;99.90;;;;;;4960031;28;20742;-77
2021/05/23 01:12:54;;;;;;;18.20;12.55;;;12.60;99.90;;;;;;4968139;28;20025;-78
2021/05/23 01:15:30;;;;;;;20.75;13.15;;;12.60;99.90;;;;;;4958757;28;20042;-77
2021/05/23 01:17:59;;;;;;;17.15;12.75;;;12.60;99.90;;;;;;4957623;28;20030;-77
2021/05/23 01:20:32;;;;;;;19.23;13.50;;;12.60;99.90;;;;;;4954950;28;20035;-77
2021/05/23 01:23:18;;;;;;;19.15;12.88;;;12.60;99.90;;;;;;4962734;28;21340;-77
2021/05/23 01:25:47;;;;;;;17.70;13.63;;;12.60;99.90;;;;;;4959908;28;20043;-79
2021/05/23 01:28:15;;;;;;;20.73;14.18;;;12.50;99.90;;;;;;4967820;28;20023;-79
2021/05/23 01:30:46;;;;;;;18.80;14.10;;;12.50;99.90;;;;;;4962502;28;20058;-77
2021/05/23 01:33:20;;;;;;;22.88;13.70;;;12.60;99.90;;;;;;4966241;28;20038;-76
2021/05/23 01:35:50;;;;;;;22.90;15.57;;;12.50;99.90;;;;;;4968043;28;20482;-76
2021/05/23 01:38:21;;;;;;;27.90;16.45;;;12.60;99.90;;;;;;4959165;28;20464;-76
2021/05/23 01:40:49;;;;;;;23.00;14.90;;;12.60;99.90;;;;;;4960895;28;20370;-76
2021/05/23 01:43:15;;;;;;;19.10;14.63;;;12.70;99.90;;;;;;4962364;28;20046;-75
2021/05/23 01:45:42;;;;;;;22.63;15.07;;;12.60;99.90;;;;;;4957023;28;20790;-77
2021/05/23 01:48:09;;;;;;;22.10;15.27;;;12.50;99.90;;;;;;4962505;28;20110;-77
2021/05/23 01:50:36;;;;;;;22.08;15.50;;;12.50;99.90;;;;;;4967417;28;20077;-73
2021/05/23 01:53:04;;;;;;;19.63;15.05;;;12.50;99.90;;;;;;4958314;28;20042;-73
2021/05/23 01:55:30;;;;;;;20.40;14.07;;;12.50;99.90;;;;;;4963958;28;20016;-76
2021/05/23 01:57:57;;;;;;;20.63;13.88;;;12.60;99.90;;;;;;4964871;28;20034;-73
2021/05/23 02:00:30;;;;;;;27.48;16.65;;;12.50;99.90;;;;;;4957660;28;20042;-75
2021/05/23 02:02:56;;;;;;;26.38;16.27;;;12.50;99.90;;;;;;4965963;28;20026;-72
2021/05/23 02:05:22;;;;;;;22.77;14.98;;;12.60;99.90;;;;;;4966294;28;20035;-73
2021/05/23 02:07:47;;;;;;;22.42;15.18;;;12.50;99.90;;;;;;4960243;28;20025;-77
2021/05/23 02:10:18;;;;;;;24.73;16.42;;;12.60;99.90;;;;;;4960642;28;20400;-73
2021/05/23 02:12:47;;;;;;;29.90;16.30;;;12.70;99.90;;;;;;4955417;28;20023;-75
2021/05/23 02:15:18;;;;;;;28.05;16.55;;;12.60;99.90;;;;;;4960888;28;20101;-73
2021/05/23 02:17:46;;;;;;;24.27;16.20;;;12.60;99.90;;;;;;4957726;28;20031;-73
2021/05/23 02:20:20;;;;;;;28.50;18.27;;;12.70;99.90;;;;;;4956684;28;20038;-73
2021/05/23 02:22:48;;;;;;;23.48;15.30;;;12.60;99.90;;;;;;4965114;28;20035;-73
2021/05/23 02:25:19;;;;;;;23.80;16.90;;;12.60;99.90;;;;;;4959033;28;20043;-73
2021/05/23 02:27:47;;;;;;;28.25;17.27;;;12.60;99.90;;;;;;4959412;28;20039;-72
2021/05/23 02:30:20;;;;;;;24.05;16.65;;;12.60;99.90;;;;;;4957178;28;20037;-76
2021/05/23 02:32:47;;;;;;;21.30;14.95;;;12.60;99.90;;;;;;4960635;28;20113;-74
2021/05/23 02:35:15;;;;;;;24.73;14.43;;;12.50;99.90;;;;;;4962866;28;20458;-76
2021/05/23 02:37:41;;;;;;;23.15;15.43;;;12.50;99.90;;;;;;4967081;28;20023;-75
2021/05/23 02:40:13;;;;;;;24.05;15.32;;;12.50;99.90;;;;;;4957455;28;20075;-73
2021/05/23 02:42:39;;;;;;;25.87;16.00;;;12.50;99.90;;;;;;4963094;28;20122;-76
2021/05/23 02:45:07;;;;;;;24.30;16.20;;;12.50;99.90;;;;;;4962998;28;20286;-77
2021/05/23 02:47:33;;;;;;;22.45;15.45;;;12.50;99.90;;;;;;4960267;28;20015;-76
2021/05/23 02:49:59;;;;;;;23.50;16.17;;;12.50;99.90;;;;;;4953897;28;20031;-77
2021/05/23 02:52:25;;;;;;;28.15;15.43;;;12.50;99.90;;;;;;4960585;28;20030;-77
2021/05/23 02:54:51;;;;;;;29.10;15.57;;;12.40;99.90;;;;;;4955413;28;20086;-74
2021/05/23 02:57:17;;;;;;;29.15;17.10;;;12.40;99.90;;;;;;4957804;28;20114;-76
2021/05/23 02:59:43;;;;;;;29.17;17.02;;;12.40;99.90;;;;;;4958624;28;20105;-77
2021/05/23 03:02:10;;;;;;;29.17;16.58;;;12.50;99.90;;;;;;4965566;28;20364;-74
2021/05/23 03:04:35;;;;;;;25.70;16.50;;;12.30;99.90;;;;;;4960076;28;20039;-77
2021/05/23 03:07:01;;;;;;;35.35;17.85;;;12.30;99.90;;;;;;4960529;28;20023;-73
2021/05/23 03:09:27;;;;;;;31.90;20.45;;;12.30;99.90;;;;;;4961902;28;20444;-75
2021/05/23 03:11:52;;;;;;;31.15;18.90;;;12.40;99.90;;;;;;4966262;28;20045;-74
2021/05/23 03:14:18;;;;;;;28.05;19.33;;;12.30;99.90;;;;;;4959569;28;20030;-75
2021/05/23 03:16:44;;;;;;;33.88;19.70;;;12.40;99.90;;;;;;4961378;28;20026;-74
2021/05/23 03:19:10;;;;;;;35.50;19.48;;;12.30;99.90;;;;;;4963961;28;20035;-71
2021/05/23 03:21:36;;;;;;;26.55;16.88;;;12.30;99.90;;;;;;4964024;28;20027;-74
2021/05/23 03:24:02;;;;;;;27.50;16.35;;;12.30;99.90;;;;;;4964331;28;20423;-76
2021/05/23 03:26:28;;;;;;;27.33;16.30;;;12.20;99.90;;;;;;4962691;28;20039;-74
2021/05/23 03:28:53;;;;;;;30.58;16.05;;;12.30;99.90;;;;;;4965534;28;20135;-74
2021/05/23 03:31:19;;;;;;;29.45;18.17;;;12.30;99.90;;;;;;4968997;28;20492;-76
2021/05/23 03:33:45;;;;;;;28.85;16.15;;;12.40;99.90;;;;;;4957813;28;20051;-75
2021/05/23 03:36:10;;;;;;;24.85;15.02;;;12.20;99.90;;;;;;4964820;28;20468;-74
2021/05/23 03:38:36;;;;;;;19.85;13.95;;;12.20;99.90;;;;;;4957330;28;20380;-73
2021/05/23 03:41:02;;;;;;;28.02;15.82;;;12.20;99.90;;;;;;4962499;28;20469;-76
2021/05/23 03:43:27;;;;;;;20.92;13.90;;;12.40;99.90;;;;;;4960646;28;20488;-77
2021/05/23 03:45:53;;;;;;;26.33;14.55;;;12.30;99.90;;;;;;4968580;28;20113;-74
2021/05/23 03:48:19;;;;;;;25.33;14.63;;;12.20;99.90;;;;;;4962037;28;20033;-74
2021/05/23 03:50:44;;;;;;;27.77;13.15;;;12.20;99.90;;;;;;4960183;28;20067;-75
2021/05/23 03:53:10;;;;;;;29.10;15.52;;;12.20;99.90;;;;;;4961242;28;20108;-74
2021/05/23 03:55:36;;;;;;;25.65;14.10;;;12.30;99.90;;;;;;4966569;28;20045;-74
2021/05/23 03:58:03;;;;;;;26.58;13.32;;;12.20;99.90;;;;;;4959964;28;20022;-73
2021/05/23 04:00:29;;;;;;;23.48;12.90;;;12.30;99.90;;;;;;4964569;28;20038;-76
2021/05/23 04:02:56;;;;;;;19.80;10.50;;;12.30;99.90;;;;;;4964313;28;20035;-77
2021/05/23 04:05:23;;;;;;;20.98;12.10;;;12.20;99.90;;;;;;4955249;28;20243;-76
2021/05/23 04:07:50;;;;;;;24.67;13.13;;;12.20;99.90;;;;;;4959717;28;20115;-75
2021/05/23 04:10:18;;;;;;;29.30;12.63;;;12.30;99.90;;;;;;4967360;28;20550;-77
2021/05/23 04:12:48;;;;;;;23.95;14.30;;;12.30;99.90;;;;;;4961577;28;20027;-76
2021/05/23 04:15:15;;;;;;;19.27;13.85;;;12.30;99.90;;;;;;4961466;28;20038;-77
2021/05/23 04:17:41;;;;;;;23.42;12.95;;;12.30;99.90;;;;;;4955423;28;20023;-77
2021/05/23 04:20:09;;;;;;;24.80;13.45;;;12.20;99.90;;;;;;4962956;28;20082;-75
2021/05/23 04:22:35;;;;;;;16.50;10.45;;;12.10;99.90;;;;;;4966625;28;20133;-77
2021/05/23 04:25:05;;;;;;;20.35;11.95;;;12.00;99.90;;;;;;4969965;28;20031;-77
2021/05/23 04:27:31;;;;;;;20.27;11.13;;;12.00;99.90;;;;;;4966609;28;20420;-76
2021/05/23 04:29:56;;;;;;;17.73;9.18;;;12.10;99.90;;;;;;4965669;28;20070;-76
2021/05/23 04:32:22;;;;;;;16.80;8.60;;;12.00;99.90;;;;;;4965251;28;20062;-77
2021/05/23 04:34:48;;;;;;;13.10;7.20;;;11.90;99.90;;;;;;4968742;28;20483;-73
2021/05/23 04:37:15;;;;;;;16.48;7.53;;;11.90;99.90;;;;;;4965865;28;20015;-76
2021/05/23 04:39:41;;;;;;;11.73;8.18;;;11.80;99.90;;;;;;4960032;28;20383;-76
2021/05/23 04:42:07;;;;;;;17.27;8.35;;;11.80;99.90;;;;;;4971744;28;20019;-76
2021/05/23 04:44:32;;;;;;;19.27;7.70;;;11.80;99.90;;;;;;4963012;28;20118;-76
2021/05/23 04:46:58;;;;;;;15.15;7.95;;;11.90;99.90;;;;;;4959755;28;20023;-77
2021/05/23 04:49:24;;;;;;;18.10;7.50;;;11.90;99.90;;;;;;4962803;28;20079;-74
2021/05/23 04:51:49;;;;;;;19.17;8.13;;;11.90;99.90;;;;;;4965017;28;20114;-76
2021/05/23 04:54:15;;;;;;;17.95;7.10;;;11.90;99.90;;;;;;4958660;28;20031;-76
2021/05/23 04:56:40;;;;;;;21.67;7.30;;;12.00;99.90;;;;;;4968416;28;20073;-77
2021/05/23 04:59:06;;;;;;;17.50;6.47;;;11.80;99.90;;;;;;4968987;28;20035;-77
2021/05/23 05:01:32;;;;;;;20.15;6.80;;;11.80;99.90;;;;;;4966412;28;20027;-77
2021/05/23 05:03:57;;;;;;;12.63;6.25;;;11.80;99.90;;;;;;4969096;28;20034;-76
2021/05/23 05:06:23;;;;;;;19.08;7.07;;;11.80;99.90;;;;;;4957147;28;20027;-77
2021/05/23 05:08:49;;;;;;;16.23;6.97;;;11.80;99.90;;;;;;4967309;28;20171;-77
2021/05/23 05:11:14;;;;;;;18.67;6.25;;;11.90;99.90;;;;;;4968071;28;20613;-77
2021/05/23 05:13:40;;;;;;;17.80;6.25;;;11.80;99.90;;;;;;4958931;28;20078;-77
2021/05/23 05:16:08;;;;;;;21.10;6.00;;;11.80;99.90;;;;;;4961439;28;20033;-76
2021/05/23 05:18:35;;;;;;;14.80;5.53;;;11.80;99.90;;;;;;4965962;28;20063;-76
2021/05/23 05:21:01;;;;;;;16.40;5.82;;;11.80;99.90;;;;;;4970580;28;20034;-73
2021/05/23 05:23:26;;;;;;;12.45;5.45;;;11.90;99.90;;;;;;4962357;28;20081;-73
2021/05/23 05:25:52;;;;;;;18.42;5.35;;;11.90;99.90;;;;;;4961810;28;20054;-74
2021/05/23 05:28:18;;;;;;;17.52;7.00;;;11.90;99.90;;;;;;4962851;28;20027;-73
2021/05/23 05:30:43;;;;;;;16.63;6.05;;;12.00;99.90;;;;;;4964918;28;20384;-73
2021/05/23 05:33:09;;;;;;;15.07;5.63;;;11.90;99.90;;;;;;4964358;28;20038;-76
2021/05/23 05:35:35;;;;;;;10.63;4.90;;;11.90;99.90;;;;;;4959180;28;20049;-70
2021/05/23 05:38:00;;;;;;;10.00;4.35;;;11.80;99.90;;;;;;4971096;28;20022;-76
2021/05/23 05:40:26;;;;;;;9.82;5.35;;;11.70;99.90;;;;;;4957692;28;20046;-76
2021/05/23 05:42:51;;;;;;;19.55;5.22;;;11.60;99.90;;;;;;4964386;28;20253;-77
2021/05/23 05:45:17;;;;;;;12.25;5.20;;;11.60;99.90;;;;;;4965255;28;20050;-77
2021/05/23 05:47:43;;;;;;;12.98;4.32;;;11.60;99.90;;;;;;4960889;28;20472;-75
2021/05/23 05:50:09;;;;;;;13.70;4.68;;;11.60;99.90;;;;;;4963188;28;20484;-75
2021/05/23 05:52:35;;;;;;;14.50;5.00;;;11.60;99.90;;;;;;4964104;28;20073;-77
2021/05/23 05:55:01;;;;;;;9.00;4.72;;;11.60;99.90;;;;;;4962846;28;20039;-77
2021/05/23 05:57:26;;;;;;;13.30;4.57;;;11.60;99.90;;;;;;4964634;28;20420;-77
2021/05/23 05:59:52;;;;;;;16.60;4.72;;;11.50;99.90;;;;;;4963784;28;20468;-77
2021/05/23 06:02:18;;;;;;;11.05;4.20;;;11.50;99.90;;;;;;4966895;28;20114;-76
2021/05/23 06:04:44;;;;;;;13.05;3.78;;;11.50;99.90;;;;;;4965941;28;20030;-72
2021/05/23 06:07:09;;;;;;;12.15;3.47;;;11.40;99.90;;;;;;4961914;28;20026;-72
2021/05/23 06:09:35;;;;;;;12.50;4.55;;;11.40;99.90;;;;;;4969654;28;20387;-76
2021/05/23 06:12:01;;;;;;;16.23;3.80;;;11.40;99.90;;;;;;4964840;28;20031;-75
2021/05/23 06:14:27;;;;;;;12.98;3.83;;;11.40;99.90;;;;;;4962649;28;20098;-73
2021/05/23 06:16:52;;;;;;;11.10;3.40;;;11.40;99.90;;;;;;4958954;28;20045;-71
2021/05/23 06:19:18;;;;;;;14.95;3.38;;;11.40;99.90;;;;;;4964275;28;20028;-75
2021/05/23 06:21:44;;;;;;;12.05;4.20;;;11.40;99.90;;;;;;4968489;28;20078;-76
2021/05/23 06:24:10;;;;;;;14.63;3.03;;;11.50;99.90;;;;;;4965705;28;20506;-74
2021/05/23 06:26:36;;;;;;;13.73;4.05;;;11.60;99.90;;;;;;4959685;28;20033;-73
2021/05/23 06:29:02;;;;;;;8.05;3.45;;;11.70;99.90;;;;;;4963154;28;20038;-77
2021/05/23 06:31:27;;;;;;;12.13;3.47;;;11.60;99.90;;;;;;4969692;28;20030;-73
2021/05/23 06:33:56;;;;;;;12.40;3.25;;;11.50;99.90;;;;;;4959277;28;20022;-77
2021/05/23 06:36:22;;;;;;;15.23;3.35;;;11.60;99.90;;;;;;4963822;28;20475;-76
2021/05/23 06:38:47;;;;;;;10.38;3.00;;;11.80;99.90;;;;;;4965566;28;20027;-74
2021/05/23 06:41:13;;;;;;;8.52;3.17;;;11.80;99.90;;;;;;4963491;28;20086;-77
2021/05/23 06:43:39;;;;;;;10.18;2.97;;;11.90;99.90;;;;;;4964222;28;20035;-74
2021/05/23 06:46:04;;;;;;;11.35;3.40;;;12.00;99.90;;;;;;4961214;28;20034;-73
2021/05/23 06:48:30;;;;;;;13.90;3.00;;;12.10;99.90;;;;;;4960769;28;20042;-74
2021/05/23 06:50:56;;;;;;;13.70;3.40;;;12.10;99.90;;;;;;4963810;28;20043;-73
2021/05/23 06:53:21;;;;;;;12.52;3.55;;;12.10;99.90;;;;;;4962713;28;20034;-72
2021/05/23 06:55:47;;;;;;;8.43;3.00;;;12.30;99.90;;;;;;4964976;28;20057;-72
2021/05/23 06:58:13;;;;;;;9.25;2.97;;;12.40;99.90;;;;;;4959778;28;20161;-73
2021/05/23 07:00:38;;;;;;;13.30;3.22;;;12.40;99.90;;;;;;4962731;28;20034;-75
2021/05/23 07:03:04;;;;;;;15.15;3.22;;;12.50;99.90;;;;;;4958977;28;20027;-72
2021/05/23 07:05:30;;;;;;;8.75;2.70;;;12.50;99.90;;;;;;4960602;28;20396;-73
2021/05/23 07:07:55;;;;;;;10.70;3.00;;;12.60;99.90;;;;;;4964685;28;20026;-74
2021/05/23 07:10:21;;;;;;;11.63;2.70;;;12.70;99.90;;;;;;4957380;28;20122;-74
2021/05/23 07:12:47;;;;;;;13.80;3.50;;;12.60;99.90;;;;;;4956635;28;20023;-71
2021/05/23 07:15:12;;;;;;;15.05;3.65;;;12.60;99.90;;;;;;4959450;28;20022;-77
2021/05/23 07:17:38;;;;;;;8.52;2.90;;;12.60;99.90;;;;;;4966728;28;20066;-77
2021/05/23 07:20:05;;;;;;;9.18;2.80;;;12.60;99.90;;;;;;4963144;28;20031;-75
2021/05/23 07:22:31;;;;;;;7.72;2.80;;;12.60;99.90;;;;;;4962284;28;20032;-77
2021/05/23 07:24:57;;;;;;;9.55;2.88;;;12.70;99.90;;;;;;4960107;28;20037;-70
2021/05/23 07:27:23;;;;;;;12.45;2.63;;;12.70;99.90;;;;;;4963173;28;20026;-73
2021/05/23 07:29:48;;;;;;;11.65;3.17;;;12.70;99.90;;;;;;4965806;28;20850;-73
2021/05/23 07:32:14;;;;;;;9.93;2.70;;;12.70;99.90;;;;;;4967748;28;20054;-76
2021/05/23 07:34:40;;;;;;;9.48;2.67;;;12.80;99.90;;;;;;4956643;28;20527;-71
2021/05/23 07:37:05;;;;;;;8.43;2.90;;;13.00;99.90;;;;;;4967890;28;20031;-73
2021/05/23 07:39:31;;;;;;;10.20;2.97;;;13.00;99.90;;;;;;4959449;28;20035;-72
2021/05/23 07:41:57;;;;;;;9.70;2.17;;;13.00;99.90;;;;;;4963450;28;20023;-72
2021/05/23 07:44:22;;;;;;;8.13;1.95;;;13.00;99.90;;;;;;4965097;28;20101;-72
2021/05/23 07:46:48;;;;;;;10.32;3.35;;;13.00;99.90;;;;;;4962434;28;20038;-71
2021/05/23 07:49:16;;;;;;;7.53;2.22;;;13.10;99.90;;;;;;4961850;28;20046;-81
2021/05/23 07:51:41;;;;;;;7.18;2.80;;;13.20;99.90;;;;;;4962289;28;20034;-70
2021/05/23 07:54:07;;;;;;;5.55;2.25;;;13.20;99.90;;;;;;4961209;28;20039;-75
2021/05/23 07:56:33;;;;;;;7.60;2.65;;;13.20;99.90;;;;;;4962661;28;20113;-70
2021/05/23 07:58:58;;;;;;;10.70;2.20;;;13.20;99.90;;;;;;4960226;28;20037;-71
2021/05/23 08:01:24;;;;;;;7.60;1.85;;;13.10;99.90;;;;;;4965023;28;20149;-70
2021/05/23 08:03:50;;;;;;;7.90;2.28;;;13.30;99.90;;;;;;4958442;28;20039;-71
2021/05/23 08:06:17;;;;;;;9.25;2.00;;;13.30;99.90;;;;;;4962815;28;20030;-71
2021/05/23 08:08:43;;;;;;;9.23;2.60;;;13.30;99.90;;;;;;4963068;28;20519;-71
2021/05/23 08:11:09;;;;;;;7.28;2.67;;;13.40;99.90;;;;;;4960273;28;20028;-71
2021/05/23 08:13:34;;;;;;;7.90;2.78;;;13.50;99.90;;;;;;4958034;28;20035;-70
2021/05/23 08:16:00;;;;;;;10.07;2.55;;;13.60;99.90;;;;;;4962895;28;20036;-73
2021/05/23 08:18:29;;;;;;;8.18;2.50;;;13.80;99.90;;;;;;4961036;28;20030;-71
2021/05/23 08:21:04;;;;;;;4.47;2.13;;;13.80;99.90;;;;;;4956430;28;20035;-70
2021/05/23 08:23:31;;;;;;;6.20;2.30;;;14.00;99.90;;;;;;4958042;28;20126;-71
2021/05/23 08:25:58;;;;;;;6.75;2.03;;;14.10;99.90;;;;;;4958613;28;20027;-71
2021/05/23 08:28:25;;;;;;;3.95;1.80;;;14.10;99.90;;;;;;4957254;28;20023;-73
2021/05/23 08:30:51;;;;;;;4.35;1.40;;;14.00;99.90;;;;;;4961865;28;20043;-78
2021/05/23 08:33:16;;;;;;;8.35;2.03;;;14.20;99.90;;;;;;4962410;28;20011;-73
2021/05/23 08:35:42;;;;;;;6.97;1.50;;;14.10;99.90;;;;;;4962359;28;20102;-75
2021/05/23 08:38:08;;;;;;;9.60;2.05;;;14.00;99.90;;;;;;4964440;28;20102;-71
2021/05/23 08:40:38;;;;;;;6.18;1.55;;;14.00;99.90;;;;;;4963128;28;20098;-72
2021/05/23 08:43:08;;;;;;;5.60;1.52;;;13.90;99.90;;;;;;4957237;28;20038;-72
2021/05/23 08:45:34;;;;;;;8.40;1.92;;;14.10;99.90;;;;;;4961907;28;20054;-73
2021/05/23 08:48:00;;;;;;;6.22;1.50;;;14.20;99.90;;;;;;4961498;28;20527;-71
2021/05/23 08:50:26;;;;;;;3.70;1.30;;;14.20;99.90;;;;;;4959111;28;20118;-70
2021/05/23 08:52:59;;;;;;;7.07;1.40;;;14.60;99.90;;;;;;4958603;28;20114;-70
2021/05/23 08:55:26;;;;;;;5.40;1.10;;;14.50;99.90;;;;;;4958668;28;20030;-70
2021/05/23 08:57:54;;;;;;;4.55;1.30;;;14.60;99.90;;;;;;4958053;28;20085;-70
2021/05/23 09:00:21;;;;;;;8.15;1.38;;;14.70;99.90;;;;;;4966125;28;20031;-71
2021/05/23 09:02:54;;;;;;;4.82;1.25;;;14.90;99.90;;;;;;4957294;28;20092;-70
2021/05/23 09:05:36;;;;;;;5.38;1.70;;;15.00;99.90;;;;;;4959972;28;20559;-72
2021/05/23 09:08:07;;;;;;;9.18;1.70;;;14.80;99.90;;;;;;4965286;28;20392;-70
2021/05/23 09:10:35;;;;;;;5.90;1.50;;;14.90;99.90;;;;;;4960764;28;20547;-76
2021/05/23 09:13:01;;;;;;;4.90;1.50;;;14.90;99.90;;;;;;4961653;28;20038;-72
2021/05/23 09:15:27;;;;;;;14.70;1.75;;;15.20;99.90;;;;;;4960498;28;20023;-70
2021/05/23 09:18:00;;;;;;;5.28;2.50;;;15.50;99.90;;;;;;4969873;28;20066;-71
2021/05/23 09:20:26;;;;;;;8.50;1.50;;;15.60;99.90;;;;;;4967805;28;20023;-70
2021/05/23 09:22:53;;;;;;;6.85;1.90;;;15.40;99.90;;;;;;4971311;28;20042;-72
2021/05/23 09:25:36;;;;;;;8.82;1.65;;;15.60;99.90;;;;;;4963179;28;20027;-70
2021/05/23 09:28:03;;;;;;;7.22;1.58;;;16.00;99.90;;;;;;4960424;28;20035;-69
2021/05/23 09:30:31;;;;;;;4.90;1.30;;;16.10;99.90;;;;;;4959466;28;20030;-68
2021/05/23 09:32:58;;;;;;;5.03;1.42;;;16.50;99.90;;;;;;4970257;28;20022;-68
2021/05/23 09:35:29;;;;;;;4.38;1.73;;;16.90;99.90;;;;;;4964677;28;20098;-68
2021/05/23 09:37:57;;;;;;;5.45;1.20;;;17.10;99.90;;;;;;4959542;28;20030;-69
2021/05/23 09:40:29;;;;;;;5.95;1.40;;;17.00;99.90;;;;;;4958861;28;20074;-68
2021/05/23 09:42:55;;;;;;;3.73;1.90;;;16.60;99.90;;;;;;4963507;28;20031;-69
2021/05/23 09:45:24;;;;;;;8.82;1.40;;;16.60;99.90;;;;;;4964914;28;20186;-68
2021/05/23 09:47:56;;;;;;;3.25;1.45;;;17.20;99.90;;;;;;4960165;28;20050;-69
2021/05/23 09:50:37;;;;;;;8.18;1.50;;;17.30;99.90;;;;;;4964553;28;20038;-69
2021/05/23 09:53:04;;;;;;;6.82;1.10;;;17.50;99.90;;;;;;4967019;28;20035;-69
2021/05/23 09:55:30;;;;;;;6.22;1.58;;;17.40;99.90;;;;;;4962180;28;20032;-68
2021/05/23 09:57:55;;;;;;;10.38;2.47;;;16.80;99.90;;;;;;4964929;28;20029;-69
2021/05/23 10:00:22;;;;;;;5.35;2.38;;;16.70;99.90;;;;;;4966053;28;20035;-69
2021/05/23 10:02:56;;;;;;;4.95;1.73;;;16.50;99.90;;;;;;4960976;28;20154;-69
2021/05/23 10:05:22;;;;;;;5.72;1.60;;;16.40;99.90;;;;;;4967614;28;20090;-69
2021/05/23 10:07:48;;;;;;;9.40;1.90;;;16.30;99.90;;;;;;4960250;28;20098;-71
2021/05/23 10:10:15;;;;;;;4.65;1.67;;;16.30;99.90;;;;;;4959090;28;20031;-69
2021/05/23 10:12:42;;;;;;;5.75;1.27;;;16.30;99.90;;;;;;4960827;28;20073;-68
2021/05/23 10:15:10;;;;;;;4.07;1.42;;;16.30;99.90;;;;;;4960714;28;20479;-69
2021/05/23 10:17:37;;;;;;;6.43;1.42;;;16.40;99.90;;;;;;4962011;28;20023;-69
2021/05/23 10:20:08;;;;;;;6.38;1.75;;;16.80;99.90;;;;;;4961883;28;20050;-69
2021/05/23 10:22:36;;;;;;;4.47;1.60;;;17.30;99.90;;;;;;4961747;28;20015;-70
2021/05/23 10:25:06;;;;;;;6.22;1.42;;;17.70;99.90;;;;;;4961409;28;20385;-69
2021/05/23 10:27:36;;;;;;;5.20;1.63;;;17.50;99.90;;;;;;4966717;28;20035;-68
2021/05/23 10:30:04;;;;;;;7.85;1.98;;;17.30;99.90;;;;;;4969042;28;20022;-69
2021/05/23 10:32:32;;;;;;;2.13;1.05;;;17.60;99.90;;;;;;4963468;28;20333;-68
2021/05/23 10:35:13;;;;;;;6.55;1.70;;;18.00;99.90;;;;;;4963906;28;20387;-68
2021/05/23 10:37:41;;;;;;;4.40;1.55;;;18.10;99.90;;;;;;4962722;28;20094;-68
2021/05/23 10:40:23;;;;;;;6.45;1.35;;;18.20;99.90;;;;;;4961171;28;20404;-68
2021/05/23 10:42:55;;;;;;;5.70;1.20;;;18.00;99.90;;;;;;4962427;28;20436;-69
2021/05/23 10:45:33;;;;;;;13.67;1.70;;;17.90;99.90;;;;;;4963756;28;20110;-70
2021/05/23 10:48:12;;;;;;;3.90;1.40;;;18.00;99.90;;;;;;4962859;28;20031;-70
2021/05/23 10:50:38;;;;;;;7.22;1.40;;;18.30;99.90;;;;;;4962483;28;20506;-73
2021/05/23 10:53:05;;;;;;;4.90;1.50;;;18.60;99.90;;;;;;4957325;28;20042;-68
2021/05/23 10:55:31;;;;;;;6.13;1.25;;;18.90;99.90;;;;;;4957244;28;20019;-69
2021/05/23 10:57:58;;;;;;;6.85;1.80;;;18.50;99.90;;;;;;4961606;28;20032;-69
2021/05/23 11:00:36;;;;;;;4.63;1.58;;;18.60;99.90;;;;;;4964791;28;20023;-72
2021/05/23 11:03:16;;;;;;;4.95;1.42;;;18.70;99.90;;;;;;4962705;28;20074;-72
2021/05/23 11:05:42;;;;;;;8.65;1.27;;;18.80;99.90;;;;;;4967265;28;20560;-73
2021/05/23 11:08:12;;;;;;;5.30;1.20;;;19.10;99.90;;;;;;4960653;28;20035;-72
2021/05/23 11:10:39;;;;;;;8.57;1.60;;;19.20;99.90;;;;;;4956550;28;20031;-73
2021/05/23 11:13:06;;;;;;;9.00;1.00;;;19.30;99.90;;;;;;4963302;28;20081;-70
2021/05/23 11:15:48;;;;;;;4.70;1.30;;;19.00;99.90;;;;;;4966430;28;20093;-73
2021/05/23 11:18:23;;;;;;;5.55;1.15;;;18.70;99.90;;;;;;4961806;28;20102;-72
2021/05/23 11:21:00;;;;;;;3.58;1.20;;;18.50;99.90;;;;;;4961185;28;20038;-72
2021/05/23 11:23:27;;;;;;;7.03;1.83;;;18.20;99.90;;;;;;4961915;28;20046;-72
2021/05/23 11:26:04;;;;;;;5.20;1.10;;;17.90;99.90;;;;;;4956371;28;20518;-72
2021/05/23 11:28:30;;;;;;;5.38;1.33;;;17.90;99.90;;;;;;4961114;28;20045;-69
2021/05/23 11:30:55;;;;;;;4.22;1.15;;;17.70;99.90;;;;;;4965738;28;20023;-71
2021/05/23 11:33:21;;;;;;;8.60;1.55;;;17.70;99.90;;;;;;4964415;28;20031;-70
2021/05/23 11:35:50;;;;;;;3.22;1.20;;;18.20;99.90;;;;;;4961262;28;20080;-69
2021/05/23 11:38:15;;;;;;;3.65;1.00;;;18.30;99.90;;;;;;4946913;28;20034;-69
2021/05/23 11:40:43;;;;;;;5.40;1.45;;;18.30;99.90;;;;;;4963643;28;20031;-69
2021/05/23 11:43:16;;;;;;;8.48;1.77;;;18.40;99.90;;;;;;4963905;28;20039;-70
2021/05/23 11:46:02;;;;;;;5.60;1.48;;;18.30;99.90;;;;;;4963892;28;20019;-73
2021/05/23 11:48:42;;;;;;;5.85;1.10;;;18.70;99.90;;;;;;4960889;28;20020;-70
2021/05/23 11:51:09;;;;;;;4.53;1.10;;;18.70;99.90;;;;;;4964595;28;20038;-69
2021/05/23 11:53:37;;;;;;;3.47;1.25;;;18.60;99.90;;;;;;4966586;28;20548;-72
2021/05/23 11:56:03;;;;;;;3.35;1.08;;;18.60;99.90;;;;;;4962889;28;20049;-70
2021/05/23 11:58:28;;;;;;;6.85;1.52;;;18.50;99.90;;;;;;4962508;28;20054;-74
2021/05/23 12:01:05;;;;;;;6.95;1.60;;;18.30;99.90;;;;;;4959089;28;20564;-71
2021/05/23 12:03:31;;;;;;;5.95;1.23;;;18.20;99.90;;;;;;4960269;28;20511;-74
2021/05/23 12:05:57;;;;;;;3.80;1.17;;;18.40;99.90;;;;;;4960347;28;20018;-73
2021/05/23 12:08:23;;;;;;;2.42;0.90;;;18.60;99.90;;;;;;4954720;28;20455;-69
2021/05/23 12:11:06;;;;;;;2.10;1.20;;;18.70;99.90;;;;;;4954475;28;20114;-74
2021/05/23 12:13:44;;;;;;;4.50;1.25;;;18.80;99.90;;;;;;4957535;28;20508;-69
2021/05/23 12:16:15;;;;;;;3.15;1.40;;;18.80;99.90;;;;;;4960590;28;20038;-74
2021/05/23 12:18:45;;;;;;;5.10;1.15;;;18.60;99.50;;;;;;4961562;28;20031;-72
2021/05/23 12:21:14;;;;;;;4.13;1.10;;;18.40;99.90;;;;;;4956250;28;20058;-71
2021/05/23 12:23:40;;;;;;;4.80;1.05;;;18.40;99.90;;;;;;4956264;28;20047;-71
2021/05/23 12:26:13;;;;;;;5.38;1.08;;;18.40;99.70;;;;;;4955274;28;20037;-71
2021/05/23 12:28:45;;;;;;;7.43;1.52;;;18.50;99.90;;;;;;4957657;28;20035;-73
2021/05/23 12:31:12;;;;;;;7.25;1.13;;;18.60;99.90;;;;;;4964227;28;20031;-69
2021/05/23 12:33:39;;;;;;;4.75;1.50;;;18.80;99.90;;;;;;4963275;28;20070;-73
2021/05/23 12:36:11;;;;;;;2.55;1.33;;;18.90;99.40;;;;;;4953121;28;20054;-69
2021/05/23 12:38:38;;;;;;;3.70;1.20;;;18.80;99.90;;;;;;4959118;28;20499;-73
2021/05/23 12:41:05;;;;;;;4.07;1.15;;;18.80;99.70;;;;;;4964996;28;20023;-71